Time;durP1;ratioP1;P1;durP2;ratioP2;P2;SDS_P1;SDS_P2;PMS_P1;PMS_P2;Temp;Humidity;BMP_temperature;BMP_pressure;BME280_temperature;BME280_humidity;BME280_pressure;Samples;Min_cycle;Max_cycle;Signal;HPM_P1;HPM_P2
2023/09/28 00:00:46;;;;;;;2.20;1.85;;;;;;;13.99;100.00;98154.50;1220630;75;3098464;-79
2023/09/28 00:03:18;;;;;;;2.20;2.00;;;;;;;13.96;100.00;98151.97;1223253;75;2980578;-75
2023/09/28 00:05:51;;;;;;;3.00;2.30;;;;;;;13.83;100.00;98152.34;1220315;75;3036626;-76
2023/09/28 00:08:21;;;;;;;2.35;2.15;;;;;;;13.96;100.00;98155.47;1208164;75;3988300;-73
2023/09/28 00:10:53;;;;;;;2.00;1.80;;;;;;;13.92;100.00;98143.91;1209617;75;4010395;-76
2023/09/28 00:13:23;;;;;;;2.00;1.80;;;;;;;13.90;100.00;98154.66;1222595;75;2982931;-77
2023/09/28 00:15:56;;;;;;;2.50;2.00;;;;;;;13.73;100.00;98157.25;1224660;75;2962865;-77
2023/09/28 00:18:29;;;;;;;2.50;2.15;;;;;;;13.81;100.00;98144.56;1221667;75;3094833;-77
2023/09/28 00:21:01;;;;;;;2.40;2.15;;;;;;;13.52;100.00;98145.53;1197117;75;4009834;-74
2023/09/28 00:23:32;;;;;;;2.70;2.50;;;;;;;13.54;100.00;98145.81;1218891;75;3003309;-75
2023/09/28 00:26:07;;;;;;;2.85;2.55;;;;;;;13.53;100.00;98141.53;1222022;75;2939654;-76
2023/09/28 00:28:39;;;;;;;2.20;2.00;;;;;;;13.57;100.00;98150.34;1222643;75;3059229;-76
2023/09/28 00:31:09;;;;;;;3.55;2.80;;;;;;;13.42;100.00;98146.91;1221041;75;3078356;-74
2023/09/28 00:33:44;;;;;;;3.45;2.80;;;;;;;13.49;100.00;98140.97;1224827;75;2874236;-79
2023/09/28 00:36:14;;;;;;;4.85;3.65;;;;;;;13.51;100.00;98144.00;1218530;75;3046724;-80
2023/09/28 00:38:47;;;;;;;4.70;4.10;;;;;;;13.34;100.00;98138.31;1227406;75;2794517;-78
2023/09/28 00:41:18;;;;;;;5.05;4.20;;;;;;;13.49;100.00;98140.97;1212439;75;3884318;-76
2023/09/28 00:43:50;;;;;;;8.00;6.20;;;;;;;13.43;100.00;98143.69;1225322;75;2924059;-79
2023/09/28 00:46:20;;;;;;;7.35;6.40;;;;;;;13.40;100.00;98141.91;1223873;83;2930166;-76
2023/09/28 00:49:03;;;;;;;7.40;6.20;;;;;;;13.44;100.00;98141.69;1223784;75;2921815;-77
2023/09/28 00:51:33;;;;;;;5.10;4.50;;;;;;;13.47;100.00;98137.19;1224455;75;2924733;-77
2023/09/28 00:54:11;;;;;;;7.15;5.60;;;;;;;13.25;100.00;98132.94;1221861;75;3091102;-78
2023/09/28 00:56:41;;;;;;;7.75;6.75;;;;;;;13.26;100.00;98131.72;1207223;75;3949636;-73
2023/09/28 00:59:14;;;;;;;6.15;5.05;;;;;;;13.45;100.00;98140.47;1222347;75;2999462;-74
2023/09/28 01:01:47;;;;;;;4.95;4.35;;;;;;;13.35;100.00;98139.09;1223182;75;2911788;-79
2023/09/28 01:04:22;;;;;;;3.90;3.40;;;;;;;13.30;100.00;98132.28;1216136;75;3059822;-76
2023/09/28 01:06:52;;;;;;;4.10;3.55;;;;;;;12.99;100.00;98133.63;1224043;75;2920936;-75
2023/09/28 01:09:25;;;;;;;3.90;3.50;;;;;;;13.23;100.00;98135.44;1224102;75;2900973;-76
2023/09/28 01:11:56;;;;;;;3.50;3.10;;;;;;;13.18;100.00;98139.63;1223868;75;2935853;-75
2023/09/28 01:14:29;;;;;;;3.00;2.70;;;;;;;13.20;100.00;98136.38;1206339;75;3931169;-76
2023/09/28 01:16:59;;;;;;;3.20;2.90;;;;;;;13.05;100.00;98141.19;1218004;75;3083308;-78
2023/09/28 01:19:34;;;;;;;2.90;2.60;;;;;;;13.18;100.00;98133.34;1224776;75;2974158;-77
2023/09/28 01:22:14;;;;;;;2.85;2.60;;;;;;;12.90;100.00;98133.00;1221471;75;3008886;-76
2023/09/28 01:24:47;;;;;;;2.60;2.40;;;;;;;13.01;100.00;98130.38;1225525;75;2924114;-79
2023/09/28 01:27:18;;;;;;;4.10;2.90;;;;;;;12.89;100.00;98134.22;1220430;75;3090201;-79
2023/09/28 01:29:51;;;;;;;3.70;2.90;;;;;;;12.86;100.00;98126.94;1222764;75;2970190;-76
2023/09/28 01:32:21;;;;;;;2.80;2.50;;;;;;;13.02;100.00;98123.66;1224236;75;2921488;-77
2023/09/28 01:34:53;;;;;;;3.60;2.30;;;;;;;13.04;100.00;98134.94;1224380;75;2918547;-78
2023/09/28 01:37:33;;;;;;;3.55;2.25;;;;;;;12.99;100.00;98130.88;1223673;75;2915073;-75
2023/09/28 01:40:07;;;;;;;2.30;2.10;;;;;;;12.91;100.00;98129.78;1225344;75;2928120;-77
2023/09/28 01:42:37;;;;;;;3.00;2.65;;;;;;;12.70;100.00;98129.00;1221999;75;3082283;-73
2023/09/28 01:45:12;;;;;;;2.90;2.60;;;;;;;12.79;100.00;98130.84;1223528;75;3018120;-76
2023/09/28 01:47:41;;;;;;;2.30;2.00;;;;;;;12.78;100.00;98132.84;1187638;75;5795967;-77
2023/09/28 01:50:14;;;;;;;2.00;1.80;;;;;;;12.87;100.00;98125.72;1207951;75;3921499;-75
2023/09/28 01:52:47;;;;;;;3.20;2.65;;;;;;;12.81;100.00;98135.88;1217902;75;3084049;-77
2023/09/28 01:55:20;;;;;;;2.50;2.30;;;;;;;12.68;100.00;98136.97;1220501;75;3000277;-74
2023/09/28 01:57:50;;;;;;;2.60;2.40;;;;;;;12.80;100.00;98132.38;1222205;75;3022481;-76
2023/09/28 02:00:24;;;;;;;2.10;1.90;;;;;;;12.88;100.00;98133.47;1224593;75;2911037;-75
2023/09/28 02:02:59;;;;;;;2.55;2.35;;;;;;;12.66;100.00;98122.19;1220081;75;3098580;-77
2023/09/28 02:05:32;;;;;;;3.30;2.90;;;;;;;12.59;100.00;98123.34;1219989;75;3029786;-75
2023/09/28 02:08:09;;;;;;;8.00;5.70;;;;;;;12.58;100.00;98125.34;1218730;75;3092527;-76
2023/09/28 02:10:40;;;;;;;8.10;7.25;;;;;;;12.65;100.00;98126.94;1220969;75;3090602;-76
2023/09/28 02:13:12;;;;;;;10.35;8.70;;;;;;;12.55;100.00;98125.53;1214997;67;3111827;-75
2023/09/28 02:15:43;;;;;;;13.80;11.85;;;;;;;12.49;100.00;98132.94;1224953;75;2934532;-76
2023/09/28 02:18:16;;;;;;;12.05;10.50;;;;;;;12.54;100.00;98122.03;1225223;75;2928777;-76
2023/09/28 02:20:46;;;;;;;10.70;8.30;;;;;;;12.66;100.00;98128.44;1214604;75;3077783;-75
2023/09/28 02:23:22;;;;;;;8.20;7.20;;;;;;;12.41;100.00;98129.06;1226183;75;2815403;-77
2023/09/28 02:25:51;;;;;;;9.40;8.10;;;;;;;12.62;100.00;98130.63;1220468;75;3074338;-76
2023/09/28 02:28:24;;;;;;;8.70;7.10;;;;;;;12.45;100.00;98126.88;1223354;75;3068422;-73
2023/09/28 02:30:57;;;;;;;7.25;5.75;;;;;;;12.36;100.00;98131.28;1224747;75;2922971;-76
2023/09/28 02:33:27;;;;;;;7.05;6.35;;;;;;;12.51;100.00;98128.50;1220685;75;2942785;-75
2023/09/28 02:36:01;;;;;;;7.05;6.35;;;;;;;12.51;100.00;98128.50;1222391;75;3018266;-76
2023/09/28 02:38:33;;;;;;;7.95;6.75;;;;;;;12.50;100.00;98128.94;1220264;75;3052897;-75
2023/09/28 02:41:06;;;;;;;10.35;6.30;;;;;;;12.45;100.00;98126.88;1224733;75;2920611;-76
2023/09/28 02:43:35;;;;;;;7.20;6.05;;;;;;;12.47;100.00;98125.16;1221659;75;2948774;-79
2023/09/28 02:46:08;;;;;;;10.80;9.30;;;;;;;12.39;100.00;98132.31;1222623;75;3092328;-76
2023/09/28 02:48:38;;;;;;;15.70;13.35;;;;;;;12.38;100.00;98130.78;1222013;75;2982146;-79
2023/09/28 02:51:11;;;;;;;11.65;9.65;;;;;;;12.08;100.00;98125.31;1225885;75;2880849;-74
2023/09/28 02:53:44;;;;;;;10.40;7.80;;;;;;;11.96;100.00;98122.88;1223156;75;2926940;-76
2023/09/28 02:56:17;;;;;;;7.20;5.80;;;;;;;12.10;100.00;98133.09;1222478;75;2971854;-77
2023/09/28 02:58:47;;;;;;;5.30;4.65;;;;;;;11.79;100.00;98122.56;1217003;75;3090025;-77
2023/09/28 03:01:21;;;;;;;4.30;3.90;;;;;;;11.97;100.00;98124.38;1222534;75;2996949;-74
2023/09/28 03:03:53;;;;;;;3.55;3.25;;;;;;;12.03;100.00;98123.25;1220668;75;3090542;-74
2023/09/28 03:06:24;;;;;;;3.40;2.80;;;;;;;12.02;100.00;98121.72;1220465;75;3044696;-78
2023/09/28 03:08:59;;;;;;;4.60;2.70;;;;;;;11.72;100.00;98126.44;1223488;75;3063102;-74
2023/09/28 03:11:33;;;;;;;4.00;3.00;;;;;;;11.85;100.00;98132.38;1223053;75;2976482;-76
2023/09/28 03:14:03;;;;;;;3.05;2.50;;;;;;;11.89;100.00;98129.50;1221233;75;3069092;-73
2023/09/28 03:16:36;;;;;;;3.50;3.20;;;;;;;11.63;100.00;98135.50;1218172;75;3052954;-76
2023/09/28 03:19:07;;;;;;;3.90;3.30;;;;;;;11.66;100.00;98137.28;1182349;75;5841029;-75
2023/09/28 03:21:39;;;;;;;3.75;3.10;;;;;;;11.81;100.00;98131.06;1221538;75;3036634;-77
2023/09/28 03:24:12;;;;;;;3.70;2.95;;;;;;;11.78;100.00;98132.75;1223020;75;2927939;-75
2023/09/28 03:26:45;;;;;;;3.25;2.50;;;;;;;11.81;100.00;98139.28;1225441;75;2923884;-73
2023/09/28 03:29:15;;;;;;;3.00;2.70;;;;;;;11.65;100.00;98135.78;1222271;75;3076235;-75
2023/09/28 03:31:47;;;;;;;2.60;2.30;;;;;;;11.76;100.00;98142.69;1223825;75;3009347;-75
2023/09/28 03:34:17;;;;;;;4.00;2.85;;;;;;;11.71;100.00;98141.38;1217611;75;3069766;-74
2023/09/28 03:36:49;;;;;;;2.80;2.40;;;;;;;11.62;100.00;98142.22;1225779;75;2808189;-74
2023/09/28 03:39:25;;;;;;;4.10;3.20;;;;;;;11.62;100.00;98136.72;1209692;75;3870800;-75
2023/09/28 03:41:59;;;;;;;4.40;3.30;;;;;;;11.40;100.00;98142.56;1195648;75;3998265;-76
2023/09/28 03:44:33;;;;;;;4.10;3.70;;;;;;;11.59;100.00;98139.66;1223832;75;2929404;-78
2023/09/28 03:47:06;;;;;;;4.00;3.35;;;;;;;11.52;100.00;98138.06;1225978;75;2916092;-76
2023/09/28 03:49:39;;;;;;;4.10;3.20;;;;;;;11.66;100.00;98142.03;1220715;75;3000933;-76
2023/09/28 03:52:12;;;;;;;4.25;3.30;;;;;;;11.61;100.00;98129.72;1219766;75;3051332;-74
2023/09/28 03:54:47;;;;;;;6.10;3.70;;;;;;;11.55;100.00;98139.84;1220890;75;2974087;-74
2023/09/28 03:57:20;;;;;;;3.70;2.90;;;;;;;11.57;100.00;98136.63;1203641;75;4038155;-75
2023/09/28 03:59:53;;;;;;;3.55;2.95;;;;;;;11.52;100.00;98138.81;1223353;75;2924126;-75
2023/09/28 04:02:29;;;;;;;4.45;2.90;;;;;;;11.48;100.00;98146.44;1223515;75;2932158;-78
2023/09/28 04:05:02;;;;;;;3.60;2.85;;;;;;;11.52;100.00;98133.31;1219541;75;3085778;-75
2023/09/28 04:07:35;;;;;;;2.60;2.40;;;;;;;11.39;100.00;98137.53;1222385;75;2991918;-77
2023/09/28 04:10:12;;;;;;;2.65;2.45;;;;;;;11.41;100.00;98143.31;1211608;75;3838692;-75
2023/09/28 04:12:44;;;;;;;3.30;2.85;;;;;;;11.28;100.00;98138.84;1209411;75;3997931;-76
2023/09/28 04:15:17;;;;;;;2.90;2.50;;;;;;;11.44;100.00;98134.88;1224483;75;2907457;-78
2023/09/28 04:17:49;;;;;;;5.75;3.40;;;;;;;11.46;100.00;98124.22;1217413;75;3123929;-78
2023/09/28 04:20:22;;;;;;;4.30;3.75;;;;;;;11.46;100.00;98128.94;1223733;75;2925068;-77
2023/09/28 04:22:55;;;;;;;7.50;6.70;;;;;;;11.24;100.00;98135.50;1221439;75;3000309;-75
2023/09/28 04:25:30;;;;;;;8.95;8.05;;;;;;;11.20;100.00;98134.19;1223376;75;2948168;-74
2023/09/28 04:28:03;;;;;;;7.55;6.65;;;;;;;11.23;100.00;98134.00;1205654;75;3886929;-73
2023/09/28 04:30:36;;;;;;;6.10;5.50;;;;;;;11.35;100.00;98134.22;1204747;75;3901321;-76
2023/09/28 04:33:09;;;;;;;4.60;4.10;;;;;;;11.23;100.00;98136.75;1208863;75;4059587;-77
2023/09/28 04:35:41;;;;;;;5.35;4.45;;;;;;;11.07;100.00;98140.66;1221861;75;3041393;-77
2023/09/28 04:38:14;;;;;;;3.55;3.25;;;;;;;11.12;100.00;98136.50;1222185;75;2930767;-73
2023/09/28 04:40:50;;;;;;;3.95;3.55;;;;;;;11.28;100.00;98143.53;1224446;75;2929584;-74
2023/09/28 04:43:23;;;;;;;3.25;2.95;;;;;;;11.25;100.00;98137.00;1219031;75;3083975;-77
2023/09/28 04:45:55;;;;;;;3.55;3.00;;;;;;;11.06;100.00;98147.38;1218229;75;3102774;-77
2023/09/28 04:48:28;;;;;;;3.50;3.10;;;;;;;11.22;100.00;98145.44;1210784;75;3950817;-77
2023/09/28 04:51:00;;;;;;;3.50;3.05;;;;;;;11.17;100.00;98143.34;1220808;75;3053518;-75
2023/09/28 04:53:33;;;;;;;3.25;2.95;;;;;;;11.11;100.00;98142.47;1223203;75;2927205;-74
2023/09/28 04:56:16;;;;;;;3.20;2.90;;;;;;;11.24;100.00;98138.25;1210403;75;3812125;-76
2023/09/28 04:58:49;;;;;;;2.50;2.20;;;;;;;11.11;100.00;98145.19;1221626;75;2991551;-74
2023/09/28 05:01:22;;;;;;;2.70;2.30;;;;;;;11.23;100.00;98141.44;1208748;75;4012905;-76
2023/09/28 05:03:55;;;;;;;3.40;2.20;;;;;;;11.24;100.00;98148.47;1222547;75;2936179;-76
2023/09/28 05:06:28;;;;;;;2.60;2.40;;;;;;;11.27;100.00;98156.50;1219480;75;3010379;-79
2023/09/28 05:09:00;;;;;;;3.40;2.55;;;;;;;11.33;100.00;98151.16;1224027;75;2943684;-78
2023/09/28 05:11:36;;;;;;;2.50;2.25;;;;;;;11.33;100.00;98153.88;1217360;75;3088889;-77
2023/09/28 05:14:08;;;;;;;2.50;2.30;;;;;;;11.37;100.00;98148.97;1210203;75;3855223;-77
2023/09/28 05:16:41;;;;;;;3.40;2.65;;;;;;;11.30;100.00;98155.56;1222731;75;2938710;-76
2023/09/28 05:19:14;;;;;;;2.75;2.40;;;;;;;11.41;100.00;98157.78;1221171;75;3013323;-76
2023/09/28 05:21:47;;;;;;;2.70;2.30;;;;;;;11.48;100.00;98153.91;1221196;75;2915519;-72
2023/09/28 05:24:19;;;;;;;2.60;2.40;;;;;;;11.49;100.00;98158.16;1220485;75;2934643;-76
2023/09/28 05:26:55;;;;;;;4.45;3.30;;;;;;;11.25;100.00;98171.91;1220519;75;2943465;-77
2023/09/28 05:29:29;;;;;;;6.75;4.10;;;;;;;11.35;100.00;98175.31;1204169;75;4047956;-74
2023/09/28 05:32:04;;;;;;;4.35;3.80;;;;;;;11.50;100.00;98174.16;1220230;75;2933220;-72
2023/09/28 05:34:37;;;;;;;3.85;3.45;;;;;;;11.59;100.00;98169.81;1218566;75;3061571;-75
2023/09/28 05:37:10;;;;;;;4.70;3.80;;;;;;;11.51;100.00;98174.91;1195394;75;3965692;-72
2023/09/28 05:39:43;;;;;;;3.90;3.25;;;;;;;11.63;100.00;98178.63;1216685;75;3023547;-75
2023/09/28 05:42:18;;;;;;;3.90;3.20;;;;;;;11.63;100.00;98170.41;1219559;75;3098793;-76
2023/09/28 05:44:52;;;;;;;3.60;3.20;;;;;;;11.67;100.00;98179.94;1220548;75;2948367;-77
2023/09/28 05:47:24;;;;;;;3.30;2.80;;;;;;;11.90;100.00;98178.38;1220397;75;3064561;-74
2023/09/28 05:49:59;;;;;;;3.80;3.40;;;;;;;11.90;100.00;98183.13;1222842;75;2922738;-77
2023/09/28 05:52:32;;;;;;;6.55;5.80;;;;;;;11.93;100.00;98174.72;1222905;75;2923777;-75
2023/09/28 05:55:05;;;;;;;7.40;6.60;;;;;;;11.91;100.00;98181.91;1220282;75;2960781;-76
2023/09/28 05:57:40;;;;;;;6.55;5.65;;;;;;;12.07;100.00;98183.41;1220384;75;3115999;-73
2023/09/28 06:00:15;;;;;;;6.05;5.10;;;;;;;12.13;100.00;98176.81;1219069;75;3041531;-77
2023/09/28 06:02:48;;;;;;;6.35;5.20;;;;;;;12.25;100.00;98185.22;1220490;75;2974468;-76
2023/09/28 06:05:20;;;;;;;5.55;4.90;;;;;;;12.32;100.00;98188.34;1208363;75;4005022;-76
2023/09/28 06:07:53;;;;;;;4.80;4.35;;;;;;;12.60;100.00;98190.75;1221248;75;2937349;-73
2023/09/28 06:10:26;;;;;;;5.50;4.00;;;;;;;12.83;100.00;98183.63;1221704;75;3004611;-74
2023/09/28 06:13:02;;;;;;;5.60;4.70;;;;;;;12.78;100.00;98196.03;1223660;75;2920710;-78
2023/09/28 06:15:35;;;;;;;6.55;5.50;;;;;;;12.99;100.00;98196.84;1223099;75;2927721;-77
2023/09/28 06:18:08;;;;;;;5.90;5.15;;;;;;;16.95;100.00;98201.53;1221972;75;2932386;-76
2023/09/28 06:20:41;;;;;;;5.60;4.95;;;;;;;19.59;83.86;98198.91;1223584;75;2920730;-79
2023/09/28 06:23:14;;;;;;;5.10;4.25;;;;;;;21.56;70.72;98192.19;1210343;75;3825914;-74
2023/09/28 06:25:47;;;;;;;5.00;4.00;;;;;;;22.79;64.00;98193.44;1219023;75;3071686;-76
2023/09/28 06:28:24;;;;;;;6.45;4.80;;;;;;;23.70;60.78;98200.88;1205972;75;4079163;-75
2023/09/28 06:30:57;;;;;;;7.80;5.80;;;;;;;22.89;62.04;98208.41;1216716;75;2979206;-78
2023/09/28 06:33:30;;;;;;;9.25;6.20;;;;;;;23.29;60.36;98208.13;1217363;75;3045473;-78
2023/09/28 06:36:04;;;;;;;5.50;4.45;;;;;;;26.37;52.37;98202.44;1218307;75;3100501;-72
2023/09/28 06:38:36;;;;;;;4.20;3.75;;;;;;;27.58;49.33;98205.47;1220452;75;2937425;-75
2023/09/28 06:41:09;;;;;;;3.55;3.05;;;;;;;28.70;45.98;98200.78;1219335;75;2997797;-73
2023/09/28 06:43:44;;;;;;;3.75;2.90;;;;;;;29.33;44.70;98210.41;1209560;75;3912363;-75
2023/09/28 06:46:17;;;;;;;3.65;2.50;;;;;;;30.43;42.72;98209.81;1220427;75;3010934;-74
2023/09/28 06:48:50;;;;;;;5.45;3.40;;;;;;;30.28;42.22;98205.25;1221601;75;2930943;-75
2023/09/28 06:51:25;;;;;;;4.35;3.15;;;;;;;31.72;40.21;98197.81;1221845;75;2886565;-79
2023/09/28 06:53:59;;;;;;;6.75;3.60;;;;;;;32.70;38.81;98200.34;1221335;75;2922017;-74
2023/09/28 06:56:31;;;;;;;4.00;3.20;;;;;;;30.99;40.11;98205.81;1222358;75;2933660;-80
2023/09/28 06:59:07;;;;;;;3.25;2.75;;;;;;;27.57;47.37;98204.00;1220091;75;2931734;-78
2023/09/28 07:01:40;;;;;;;4.00;2.95;;;;;;;25.43;52.57;98209.06;1220407;75;2924312;-77
2023/09/28 07:04:12;;;;;;;5.10;3.30;;;;;;;23.31;58.24;98213.19;1220034;75;2994358;-79
2023/09/28 07:06:45;;;;;;;4.00;2.90;;;;;;;23.54;58.49;98205.63;1218115;75;3101175;-75
2023/09/28 07:09:17;;;;;;;3.60;2.80;;;;;;;23.50;58.48;98204.50;1222434;75;2925783;-77
2023/09/28 07:11:50;;;;;;;3.00;2.40;;;;;;;23.43;58.99;98202.41;1217279;75;3090726;-79
2023/09/28 07:14:25;;;;;;;3.30;2.20;;;;;;;23.09;60.28;98211.72;1219764;75;3063710;-75
2023/09/28 07:16:58;;;;;;;2.40;1.95;;;;;;;22.38;61.95;98205.38;1221195;75;2950497;-79
2023/09/28 07:19:30;;;;;;;6.20;3.95;;;;;;;20.79;65.72;98218.94;1220452;75;2983841;-78
2023/09/28 07:22:03;;;;;;;6.20;4.55;;;;;;;20.16;70.81;98212.84;1218619;75;2997895;-76
2023/09/28 07:24:36;;;;;;;6.00;4.40;;;;;;;19.92;72.28;98215.72;1222487;75;2920488;-77
2023/09/28 07:27:08;;;;;;;9.75;4.95;;;;;;;19.79;74.37;98216.38;1221978;75;2935057;-78
2023/09/28 07:29:44;;;;;;;8.00;4.70;;;;;;;19.41;76.89;98212.78;1219669;75;3097699;-74
2023/09/28 07:32:16;;;;;;;7.70;4.30;;;;;;;19.68;74.40;98211.72;1222804;75;2924559;-75
2023/09/28 07:34:49;;;;;;;7.20;4.80;;;;;;;19.13;78.63;98211.06;1222370;75;2931430;-75
2023/09/28 07:37:22;;;;;;;6.10;3.80;;;;;;;20.37;75.14;98209.47;1221790;75;2923911;-75
2023/09/28 07:39:54;;;;;;;4.95;3.85;;;;;;;19.76;75.91;98212.63;1207366;75;3874276;-76
2023/09/28 07:42:27;;;;;;;6.75;5.10;;;;;;;19.54;76.25;98212.88;1223623;75;2918083;-77
2023/09/28 07:45:02;;;;;;;6.75;4.70;;;;;;;19.98;74.00;98216.38;1219872;75;3090230;-78
2023/09/28 07:47:35;;;;;;;10.50;5.40;;;;;;;19.39;77.96;98213.31;1218308;75;3092344;-77
2023/09/28 07:50:10;;;;;;;5.70;4.60;;;;;;;20.13;73.58;98218.69;1216143;75;3095016;-77
2023/09/28 07:52:43;;;;;;;8.55;4.75;;;;;;;19.58;77.72;98219.66;1205554;75;3990064;-75
2023/09/28 07:55:16;;;;;;;9.40;5.10;;;;;;;19.47;77.09;98222.56;1219342;75;3081116;-79
2023/09/28 07:57:50;;;;;;;7.65;5.20;;;;;;;19.85;77.93;98217.06;1223690;75;2927193;-80
2023/09/28 08:00:25;;;;;;;8.25;5.30;;;;;;;20.39;79.54;98220.81;1223215;75;2924514;-80
2023/09/28 08:02:58;;;;;;;;;;;;;;;20.30;81.06;98221.22;1221757;75;3014260;-78
2023/09/28 08:05:31;;;;;;;8.05;5.75;;;;;;;20.59;76.08;98217.50;1204192;75;4019712;-79
2023/09/28 08:08:05;;;;;;;8.70;5.70;;;;;;;20.28;79.67;98221.75;1180151;75;4991654;-76
2023/09/28 08:10:37;;;;;;;8.05;5.85;;;;;;;21.87;71.16;98212.06;1223274;75;2927031;-76
2023/09/28 08:13:10;;;;;;;6.85;4.85;;;;;;;26.08;57.10;98226.00;1216282;75;3084698;-80
2023/09/28 08:15:46;;;;;;;7.35;4.90;;;;;;;28.14;50.36;98221.88;1204194;75;3990467;-78
2023/09/28 08:18:19;;;;;;;7.90;5.10;;;;;;;27.82;50.16;98222.81;1219801;75;3016459;-77
2023/09/28 08:20:51;;;;;;;9.90;4.95;;;;;;;30.30;45.36;98225.16;1221370;75;2920786;-77
2023/09/28 08:23:24;;;;;;;8.65;4.65;;;;;;;31.17;43.51;98214.78;1223037;75;2922964;-78
2023/09/28 08:25:57;;;;;;;9.05;4.60;;;;;;;29.55;45.09;98219.75;1222693;75;2922153;-74
2023/09/28 08:28:30;;;;;;;6.55;3.80;;;;;;;31.65;43.02;98225.00;1218082;75;3063120;-79
2023/09/28 08:31:09;;;;;;;6.55;4.25;;;;;;;31.95;41.73;98209.25;1221267;75;2926330;-78
2023/09/28 08:33:42;;;;;;;11.20;5.40;;;;;;;29.83;44.75;98212.63;1223792;75;2928274;-78
2023/09/28 08:36:15;;;;;;;8.55;5.05;;;;;;;28.75;45.89;98206.13;1223083;75;2935135;-78
2023/09/28 08:38:48;;;;;;;7.30;4.70;;;;;;;28.18;47.44;98208.09;1218285;75;3010558;-78
2023/09/28 08:41:30;;;;;;;7.75;4.60;;;;;;;28.20;48.49;98201.88;1221950;75;2929700;-80
2023/09/28 08:44:08;;;;;;;6.30;3.95;;;;;;;29.72;45.44;98203.41;1221807;75;2976416;-76
2023/09/28 08:46:44;;;;;;;;;;;;;;;27.52;49.07;98201.44;1213655;75;3079206;-77
2023/09/28 08:49:16;;;;;;;8.70;4.50;;;;;;;27.72;48.73;98196.69;1221157;75;2996301;-78
2023/09/28 08:51:51;;;;;;;6.95;4.10;;;;;;;26.74;50.06;98198.59;1223065;75;2921649;-77
2023/09/28 08:54:24;;;;;;;7.05;4.00;;;;;;;27.26;49.66;98202.84;1223603;75;2923988;-78
2023/09/28 08:56:58;;;;;;;5.50;3.55;;;;;;;28.24;48.10;98193.75;1218826;75;3132730;-77
2023/09/28 08:59:33;;;;;;;6.45;3.40;;;;;;;28.87;45.52;98190.13;1221639;75;2921270;-77
2023/09/28 09:02:08;;;;;;;5.35;3.15;;;;;;;30.63;43.99;98196.31;1221113;75;2929732;-78
2023/09/28 09:04:42;;;;;;;6.15;3.50;;;;;;;27.56;48.40;98198.94;1222525;75;2926686;-77
2023/09/28 09:07:15;;;;;;;7.65;4.00;;;;;;;28.55;47.09;98210.19;1203370;75;4069204;-76
2023/09/28 09:09:48;;;;;;;5.75;3.30;;;;;;;29.41;45.34;98200.44;1224053;75;2853443;-76
2023/09/28 09:12:22;;;;;;;8.50;4.05;;;;;;;28.51;46.56;98198.66;1223150;75;2920097;-79
2023/09/28 09:14:55;;;;;;;5.25;2.90;;;;;;;30.40;44.25;98199.69;1220361;75;3033744;-77
2023/09/28 09:17:36;;;;;;;4.90;3.10;;;;;;;28.93;46.15;98200.38;1220979;75;2936628;-77
2023/09/28 09:20:10;;;;;;;9.60;3.50;;;;;;;28.78;44.74;98201.38;1217630;75;3053601;-77
2023/09/28 09:22:46;;;;;;;4.40;3.40;;;;;;;29.71;43.93;98193.47;1219990;75;2926643;-81
2023/09/28 09:25:19;;;;;;;5.20;3.10;;;;;;;29.20;44.40;98198.22;1221103;75;2957750;-78
2023/09/28 09:27:51;;;;;;;6.35;3.90;;;;;;;27.63;48.18;98196.03;1219272;75;3090040;-79
2023/09/28 09:30:28;;;;;;;6.50;3.95;;;;;;;27.17;49.50;98188.09;1220060;75;2997005;-77
2023/09/28 09:33:04;;;;;;;5.70;3.35;;;;;;;28.72;45.48;98179.13;1219216;75;3097922;-77
2023/09/28 09:35:38;;;;;;;5.60;3.55;;;;;;;28.12;46.36;98182.28;1220706;75;2955322;-81
2023/09/28 09:38:10;;;;;;;5.40;3.55;;;;;;;29.26;44.36;98186.66;1218283;75;3088190;-77
2023/09/28 09:40:59;;;;;;;6.90;2.90;;;;;;;30.07;43.01;98188.94;1223167;75;2928082;-76
2023/09/28 09:43:34;;;;;;;4.50;3.25;;;;;;;30.91;42.64;98191.16;1223291;75;2924523;-79
2023/09/28 09:46:08;;;;;;;5.60;4.50;;;;;;;29.37;43.17;98190.94;1220040;75;2970552;-77
2023/09/28 09:48:46;;;;;;;7.10;4.30;;;;;;;29.54;44.48;98185.16;1218959;75;3093619;-74
2023/09/28 09:51:21;;;;;;;4.00;2.80;;;;;;;30.11;43.25;98185.66;1224268;75;2924771;-81
2023/09/28 09:53:53;;;;;;;6.90;3.50;;;;;;;29.28;43.29;98179.06;1222906;75;2926499;-79
2023/09/28 09:56:26;;;;;;;4.70;3.10;;;;;;;29.73;44.33;98173.88;1222202;75;2968445;-79
2023/09/28 09:59:01;;;;;;;7.20;3.65;;;;;;;27.92;46.17;98184.25;1221493;75;2983006;-80
2023/09/28 10:01:34;;;;;;;5.80;4.05;;;;;;;28.00;46.23;98189.78;1222269;75;2926318;-77
2023/09/28 10:04:16;;;;;;;4.45;3.15;;;;;;;27.99;47.85;98183.41;1224077;75;2917001;-79
2023/09/28 10:06:51;;;;;;;5.55;3.65;;;;;;;27.62;47.98;98188.94;1220905;83;2921269;-78
2023/09/28 10:09:25;;;;;;;5.70;3.60;;;;;;;27.32;48.62;98181.56;1218646;75;2935731;-81
2023/09/28 10:11:59;;;;;;;5.45;3.30;;;;;;;28.06;46.98;98175.44;1102670;75;12019853;-72
2023/09/28 10:14:32;;;;;;;5.55;3.45;;;;;;;28.21;46.97;98175.97;1222804;75;2925945;-78
2023/09/28 10:17:05;;;;;;;4.90;3.50;;;;;;;29.27;45.26;98179.66;1223391;75;2923596;-75
2023/09/28 10:19:44;;;;;;;4.95;3.60;;;;;;;29.24;46.07;98173.13;1220274;75;2995453;-77
2023/09/28 10:22:17;;;;;;;4.20;2.90;;;;;;;29.08;44.12;98169.13;1205470;75;4012859;-79
2023/09/28 10:24:49;;;;;;;5.65;2.70;;;;;;;29.35;44.63;98177.44;1222999;75;2927237;-77
2023/09/28 10:27:22;;;;;;;3.70;2.50;;;;;;;30.17;43.79;98179.72;1222692;75;2926256;-78
2023/09/28 10:30:20;;;;;;;5.50;3.30;;;;;;;29.96;42.92;98171.88;1210471;75;3853691;-75
2023/09/28 10:32:55;;;;;;;6.00;2.90;;;;;;;28.25;45.84;98181.16;1219676;75;3059885;-79
2023/09/28 10:35:33;;;;;;;3.65;2.30;;;;;;;30.01;42.69;98176.47;1219568;75;3051736;-78
2023/09/28 10:38:24;;;;;;;5.20;3.00;;;;;;;28.85;44.10;98177.97;1218114;75;3042917;-72
2023/09/28 10:41:09;;;;;;;3.85;2.70;;;;;;;30.23;43.41;98168.81;1222715;75;2922421;-76
2023/09/28 10:43:45;;;;;;;7.35;2.85;;;;;;;30.54;41.64;98163.22;1224096;75;2926952;-77
2023/09/28 10:46:18;;;;;;;8.80;4.15;;;;;;;29.84;43.09;98166.13;1223352;75;2920721;-78
2023/09/28 10:48:51;;;;;;;6.95;3.15;;;;;;;29.63;43.63;98159.00;1223924;75;2920991;-78
2023/09/28 10:51:26;;;;;;;5.20;3.10;;;;;;;29.89;43.99;98162.25;1222972;75;2942091;-75
2023/09/28 10:53:59;;;;;;;4.95;2.60;;;;;;;30.88;41.70;98164.81;1220990;75;3042509;-80
2023/09/28 10:56:32;;;;;;;5.55;3.40;;;;;;;29.57;43.11;98166.31;1208151;75;4015289;-75
2023/09/28 10:59:04;;;;;;;3.25;2.45;;;;;;;30.34;43.21;98165.38;1221553;75;2944660;-77
2023/09/28 11:01:42;;;;;;;3.40;2.10;;;;;;;31.29;40.71;98158.25;1217514;75;3096806;-76
2023/09/28 11:04:16;;;;;;;3.60;2.60;;;;;;;30.99;40.60;98160.59;1219483;75;2993676;-78
2023/09/28 11:06:51;;;;;;;7.00;2.60;;;;;;;30.36;42.48;98159.88;1207769;75;4025992;-75
2023/09/28 11:09:24;;;;;;;5.10;2.75;;;;;;;30.11;42.32;98155.34;1215067;75;3080887;-76
2023/09/28 11:11:57;;;;;;;8.60;4.35;;;;;;;28.28;45.18;98163.09;1223121;75;2927249;-75
2023/09/28 11:14:31;;;;;;;6.90;3.10;;;;;;;30.13;42.19;98160.38;1221594;75;2957924;-74
2023/09/28 11:17:04;;;;;;;3.15;2.45;;;;;;;30.69;39.70;98156.44;1223426;75;2920446;-76
2023/09/28 11:19:37;;;;;;;9.60;3.00;;;;;;;30.52;41.33;98157.41;1221826;75;2944388;-77
2023/09/28 11:22:14;;;;;;;4.05;3.05;;;;;;;30.01;40.73;98153.91;1219403;75;3088814;-76
2023/09/28 11:24:47;;;;;;;5.05;3.15;;;;;;;29.41;41.66;98141.22;1220775;75;3066088;-78
2023/09/28 11:27:20;;;;;;;3.95;2.75;;;;;;;29.99;42.34;98154.47;1187708;75;5815682;-74
2023/09/28 11:29:58;;;;;;;5.40;3.10;;;;;;;29.50;41.19;98148.19;1206690;75;3932302;-78
2023/09/28 11:32:30;;;;;;;3.80;2.70;;;;;;;30.95;39.49;98137.69;1221399;75;2981802;-77
2023/09/28 11:35:04;;;;;;;6.30;3.00;;;;;;;30.10;41.29;98139.75;1214671;75;3061324;-76
2023/09/28 11:37:39;;;;;;;4.75;3.00;;;;;;;30.68;39.53;98141.56;1219542;75;3084470;-81
2023/09/28 11:40:14;;;;;;;4.05;2.50;;;;;;;30.49;40.45;98144.50;1224168;75;2917547;-79